Time;durP1;ratioP1;P1;durP2;ratioP2;P2;SDS_P1;SDS_P2;PMS_P1;PMS_P2;Temp;Humidity;BMP_temperature;BMP_pressure;BME280_temperature;BME280_humidity;BME280_pressure;Samples;Min_cycle;Max_cycle;Signal;HPM_P1;HPM_P2
2024/01/19 00:00:10;;;;;;;6.85;1.10;;;0.70;99.90;;;;;;5095319;28;20059;-80
2024/01/19 00:02:36;;;;;;;3.17;0.90;;;0.70;99.90;;;;;;5095975;28;20048;-80
2024/01/19 00:05:03;;;;;;;4.60;0.87;;;0.80;99.90;;;;;;5095523;28;20097;-79
2024/01/19 00:07:29;;;;;;;5.68;0.90;;;0.80;99.90;;;;;;5095638;28;20504;-79
2024/01/19 00:09:55;;;;;;;2.60;0.80;;;0.90;99.90;;;;;;5095418;28;20051;-79
2024/01/19 00:12:21;;;;;;;7.57;1.20;;;0.90;99.90;;;;;;5095535;28;20040;-79
2024/01/19 00:14:47;;;;;;;5.35;1.50;;;0.90;99.90;;;;;;5095499;28;20040;-79
2024/01/19 00:17:12;;;;;;;8.77;1.43;;;0.90;99.90;;;;;;5095253;28;20044;-79
2024/01/19 00:19:38;;;;;;;5.03;1.00;;;1.00;99.90;;;;;;5095387;28;20122;-79
2024/01/19 00:22:04;;;;;;;4.03;0.80;;;1.00;99.90;;;;;;5095034;28;20042;-80
2024/01/19 00:24:30;;;;;;;8.43;1.20;;;1.00;99.90;;;;;;5095301;28;20149;-79
2024/01/19 00:26:55;;;;;;;9.20;1.17;;;1.00;99.90;;;;;;5095075;28;20047;-79
2024/01/19 00:29:21;;;;;;;4.90;1.17;;;1.00;99.90;;;;;;5095188;28;20136;-78
2024/01/19 00:31:48;;;;;;;5.07;1.00;;;1.10;99.90;;;;;;5095163;28;20067;-78
2024/01/19 00:34:14;;;;;;;6.28;1.38;;;1.10;99.90;;;;;;5094909;28;20052;-79
2024/01/19 00:36:41;;;;;;;9.38;1.98;;;1.10;99.90;;;;;;5095079;28;20135;-79
2024/01/19 00:39:07;;;;;;;8.65;1.75;;;1.10;99.90;;;;;;5094851;28;20117;-78
2024/01/19 00:41:33;;;;;;;9.68;1.52;;;1.00;99.90;;;;;;5095181;28;20209;-78
2024/01/19 00:43:59;;;;;;;10.97;1.67;;;1.10;99.90;;;;;;5093561;28;20532;-78
2024/01/19 00:46:24;;;;;;;8.75;1.17;;;1.00;99.90;;;;;;5094875;28;20055;-78
2024/01/19 00:48:51;;;;;;;15.30;1.50;;;1.10;99.90;;;;;;5095010;28;20409;-78
2024/01/19 00:51:17;;;;;;;11.95;1.42;;;1.00;99.90;;;;;;5092345;28;20486;-78
2024/01/19 00:53:44;;;;;;;11.65;1.92;;;1.00;99.90;;;;;;5094857;28;20040;-79
2024/01/19 00:56:09;;;;;;;7.40;1.30;;;1.10;99.90;;;;;;5094457;28;20044;-78
2024/01/19 00:58:37;;;;;;;8.17;1.50;;;1.00;99.90;;;;;;5094647;28;20055;-79
2024/01/19 01:01:04;;;;;;;9.57;1.27;;;1.00;99.90;;;;;;5094031;28;20056;-79
2024/01/19 01:03:30;;;;;;;8.45;1.40;;;1.00;99.90;;;;;;5094967;28;20060;-79
2024/01/19 01:05:57;;;;;;;10.30;1.40;;;1.10;99.90;;;;;;5094348;28;20131;-78
2024/01/19 01:08:25;;;;;;;7.20;1.05;;;0.90;99.90;;;;;;5094497;28;20044;-79
2024/01/19 01:10:51;;;;;;;5.72;1.35;;;0.90;99.90;;;;;;5094512;28;20118;-79
2024/01/19 01:13:17;;;;;;;12.60;2.10;;;0.80;99.90;;;;;;5094208;28;20048;-79
2024/01/19 01:15:43;;;;;;;10.67;1.30;;;0.80;99.90;;;;;;5094334;28;20229;-79
2024/01/19 01:18:09;;;;;;;9.70;1.45;;;0.70;99.90;;;;;;5094092;28;20040;-79
2024/01/19 01:20:34;;;;;;;9.97;1.40;;;0.70;99.90;;;;;;5094236;28;20051;-79
2024/01/19 01:23:00;;;;;;;9.50;1.20;;;0.70;99.90;;;;;;5093890;28;20428;-78
2024/01/19 01:25:26;;;;;;;7.50;1.00;;;0.70;99.90;;;;;;5094402;28;20054;-79
2024/01/19 01:27:51;;;;;;;9.10;1.30;;;0.60;99.90;;;;;;5094123;28;20044;-79
2024/01/19 01:30:17;;;;;;;7.43;1.10;;;0.60;99.90;;;;;;5094071;28;20978;-79
2024/01/19 01:32:43;;;;;;;6.93;1.53;;;0.60;99.90;;;;;;5093706;28;20044;-79
2024/01/19 01:35:08;;;;;;;7.13;1.10;;;0.60;99.90;;;;;;5093913;28;20071;-79
2024/01/19 01:37:34;;;;;;;6.93;1.13;;;0.50;99.90;;;;;;5093961;28;20409;-79
2024/01/19 01:40:00;;;;;;;6.47;1.50;;;0.50;99.90;;;;;;5094019;28;20048;-79
2024/01/19 01:42:26;;;;;;;6.43;1.37;;;0.50;99.90;;;;;;5094003;28;20097;-79
2024/01/19 01:44:51;;;;;;;11.23;2.03;;;0.50;99.90;;;;;;5093865;28;20036;-79
2024/01/19 01:47:17;;;;;;;9.60;1.20;;;0.50;99.90;;;;;;5093672;28;20047;-79
2024/01/19 01:49:43;;;;;;;8.27;1.10;;;0.40;99.90;;;;;;5093746;28;20551;-79
2024/01/19 01:52:10;;;;;;;10.37;1.37;;;0.50;99.90;;;;;;5093673;28;20044;-78
2024/01/19 01:54:36;;;;;;;12.30;1.70;;;0.40;99.90;;;;;;5093958;28;20573;-79
2024/01/19 01:57:02;;;;;;;5.22;1.08;;;0.40;99.90;;;;;;5093751;28;20055;-78
2024/01/19 01:59:29;;;;;;;7.80;1.58;;;0.40;99.90;;;;;;5093622;28;20047;-79
2024/01/19 02:01:56;;;;;;;8.50;1.40;;;0.40;99.90;;;;;;5092838;28;20048;-80
2024/01/19 02:04:23;;;;;;;4.78;0.90;;;0.40;99.90;;;;;;5093352;28;20066;-79
2024/01/19 02:06:48;;;;;;;3.67;0.80;;;0.40;99.90;;;;;;5093680;28;20051;-79
2024/01/19 02:09:14;;;;;;;3.93;0.80;;;0.40;99.90;;;;;;5093340;28;20100;-79
2024/01/19 02:11:40;;;;;;;3.53;1.10;;;0.40;99.90;;;;;;5093756;28;20051;-79
2024/01/19 02:14:06;;;;;;;5.33;0.87;;;0.40;99.90;;;;;;5093270;28;20513;-79
2024/01/19 02:16:33;;;;;;;9.90;1.45;;;0.40;99.90;;;;;;5093465;28;20043;-79
2024/01/19 02:18:58;;;;;;;9.55;1.30;;;0.50;99.90;;;;;;5093080;28;20478;-79
2024/01/19 02:21:24;;;;;;;11.37;1.43;;;0.60;99.90;;;;;;5093140;28;20048;-79
2024/01/19 02:23:57;;;;;;;8.93;1.40;;;0.60;99.90;;;;;;5093485;28;20473;-79
2024/01/19 02:26:22;;;;;;;8.77;1.40;;;0.60;99.90;;;;;;5093196;28;20040;-79
2024/01/19 02:28:49;;;;;;;4.90;1.00;;;0.60;99.90;;;;;;5093471;28;20481;-79
2024/01/19 02:31:15;;;;;;;10.02;1.90;;;0.80;99.90;;;;;;5093057;28;20055;-79
2024/01/19 02:33:41;;;;;;;5.10;1.00;;;0.80;99.90;;;;;;5093228;28;20044;-79
2024/01/19 02:36:06;;;;;;;11.13;2.23;;;0.80;99.90;;;;;;5093047;28;20084;-79
2024/01/19 02:38:32;;;;;;;11.97;1.47;;;0.80;99.90;;;;;;5093195;28;20474;-79
2024/01/19 02:40:58;;;;;;;11.93;1.80;;;0.80;99.90;;;;;;5093202;28;20044;-79
2024/01/19 02:43:24;;;;;;;7.03;1.20;;;0.90;99.90;;;;;;5092904;28;20089;-79
2024/01/19 02:45:49;;;;;;;6.77;1.53;;;0.90;99.90;;;;;;5093092;28;20044;-79
2024/01/19 02:48:15;;;;;;;16.27;2.17;;;0.90;99.90;;;;;;5092935;28;20040;-79
2024/01/19 02:50:41;;;;;;;10.50;1.57;;;0.90;99.90;;;;;;5092092;28;20432;-79
2024/01/19 02:53:06;;;;;;;9.50;1.70;;;0.80;99.90;;;;;;5091972;28;20051;-79
2024/01/19 02:55:32;;;;;;;8.97;1.33;;;0.90;99.90;;;;;;5092798;28;20513;-79
2024/01/19 02:57:58;;;;;;;6.93;1.27;;;1.00;99.90;;;;;;5093181;28;20090;-79
2024/01/19 03:00:23;;;;;;;11.43;1.30;;;0.90;99.90;;;;;;5092797;28;20048;-79
2024/01/19 03:02:50;;;;;;;9.93;1.95;;;0.90;99.90;;;;;;5092809;28;20056;-79
2024/01/19 03:05:16;;;;;;;6.33;1.03;;;1.00;99.90;;;;;;5092665;28;20113;-78
2024/01/19 03:07:42;;;;;;;8.70;2.23;;;1.00;99.90;;;;;;5092883;28;20084;-78
2024/01/19 03:10:08;;;;;;;4.47;1.05;;;1.00;99.90;;;;;;5091765;28;20075;-79
2024/01/19 03:12:34;;;;;;;8.23;1.20;;;1.00;99.90;;;;;;5093065;28;20403;-79
2024/01/19 03:14:59;;;;;;;11.67;1.50;;;1.00;99.90;;;;;;5095434;28;20043;-79
2024/01/19 03:17:27;;;;;;;7.87;1.20;;;1.00;99.90;;;;;;5096454;28;20059;-79
2024/01/19 03:19:53;;;;;;;9.63;1.60;;;1.00;99.90;;;;;;5096666;28;20051;-79
2024/01/19 03:22:18;;;;;;;9.63;1.50;;;1.00;99.90;;;;;;5096206;28;20488;-79
2024/01/19 03:24:44;;;;;;;8.03;1.20;;;1.00;99.90;;;;;;5096583;28;20056;-79
2024/01/19 03:27:10;;;;;;;9.17;1.57;;;1.00;99.90;;;;;;5096196;28;20047;-79
2024/01/19 03:29:36;;;;;;;15.37;2.20;;;1.00;99.90;;;;;;5096352;28;20127;-79
2024/01/19 03:32:01;;;;;;;9.20;1.20;;;0.90;99.90;;;;;;5096290;28;20382;-79
2024/01/19 03:34:27;;;;;;;9.50;1.17;;;0.90;99.90;;;;;;5096060;28;20051;-79
2024/01/19 03:36:53;;;;;;;5.67;1.00;;;0.90;99.90;;;;;;5096014;28;20055;-79
2024/01/19 03:39:18;;;;;;;9.67;1.70;;;0.80;99.90;;;;;;5096034;28;20126;-79
2024/01/19 03:41:44;;;;;;;10.73;1.20;;;0.80;99.90;;;;;;5096345;28;20048;-79
2024/01/19 03:44:10;;;;;;;10.70;1.60;;;0.80;99.90;;;;;;5096104;28;20048;-79
2024/01/19 03:46:35;;;;;;;12.83;1.70;;;0.80;99.90;;;;;;5095918;28;20589;-79
2024/01/19 03:49:01;;;;;;;9.40;1.43;;;0.70;99.90;;;;;;5095994;28;20044;-79
2024/01/19 03:51:28;;;;;;;13.57;1.95;;;0.70;99.90;;;;;;5095777;28;20044;-78
2024/01/19 03:53:54;;;;;;;9.40;1.97;;;0.70;99.90;;;;;;5096137;28;20416;-79
2024/01/19 03:56:19;;;;;;;11.07;1.50;;;0.70;99.90;;;;;;5095401;28;20040;-78
2024/01/19 03:58:45;;;;;;;13.33;1.90;;;0.70;99.90;;;;;;5095893;28;20127;-79
2024/01/19 04:01:11;;;;;;;7.00;1.37;;;0.70;99.90;;;;;;5096236;28;20486;-79
2024/01/19 04:03:36;;;;;;;8.80;1.20;;;0.70;99.90;;;;;;5095691;28;20048;-78
2024/01/19 04:06:02;;;;;;;10.30;1.30;;;0.70;99.90;;;;;;5095714;28;20058;-78
2024/01/19 04:08:28;;;;;;;16.03;2.27;;;0.60;99.90;;;;;;5095218;28;20048;-79
2024/01/19 04:10:54;;;;;;;14.47;1.90;;;0.60;99.90;;;;;;5095729;28;20282;-79
2024/01/19 04:13:20;;;;;;;8.73;1.73;;;0.70;99.90;;;;;;5094274;28;20040;-78
2024/01/19 04:15:46;;;;;;;11.90;1.50;;;0.60;99.90;;;;;;5095546;28;20757;-79
2024/01/19 04:18:11;;;;;;;9.77;1.53;;;0.50;99.90;;;;;;5094323;28;20048;-79
2024/01/19 04:20:37;;;;;;;11.20;1.80;;;0.60;99.90;;;;;;5095557;28;20500;-78
2024/01/19 04:23:03;;;;;;;6.93;1.50;;;0.60;99.90;;;;;;5093951;28;20040;-78
2024/01/19 04:25:28;;;;;;;13.35;1.63;;;0.40;99.90;;;;;;5094834;28;20044;-78
2024/01/19 04:27:55;;;;;;;13.43;1.57;;;0.40;99.90;;;;;;5095072;28;20050;-79
2024/01/19 04:30:21;;;;;;;17.00;1.88;;;0.40;99.90;;;;;;5094252;28;20047;-78
2024/01/19 04:32:46;;;;;;;9.07;1.67;;;0.40;99.90;;;;;;5093972;28;20470;-79
2024/01/19 04:35:13;;;;;;;20.30;2.37;;;0.40;99.90;;;;;;5094839;28;20048;-79
2024/01/19 04:37:38;;;;;;;10.75;1.83;;;0.30;99.90;;;;;;5094906;28;20058;-79
2024/01/19 04:40:04;;;;;;;11.30;1.70;;;0.20;99.90;;;;;;5095026;28;20123;-79
2024/01/19 04:42:30;;;;;;;11.57;1.73;;;0.20;99.90;;;;;;5094730;28;20039;-78
2024/01/19 04:44:55;;;;;;;9.57;1.37;;;0.20;99.90;;;;;;5094038;28;20485;-79
2024/01/19 04:47:21;;;;;;;7.67;1.60;;;0.10;99.90;;;;;;5093370;28;20040;-79
2024/01/19 04:49:48;;;;;;;10.07;2.17;;;0.10;99.90;;;;;;5094881;28;20054;-79
2024/01/19 04:52:14;;;;;;;11.32;1.52;;;0.00;99.90;;;;;;5094751;28;20094;-79
2024/01/19 04:54:39;;;;;;;13.67;1.60;;;0.10;99.90;;;;;;5094613;28;20044;-79
2024/01/19 04:57:05;;;;;;;10.53;1.27;;;0.10;99.90;;;;;;5094741;28;20055;-79
2024/01/19 04:59:31;;;;;;;8.70;2.10;;;0.10;99.90;;;;;;5093215;28;20047;-79
2024/01/19 05:01:57;;;;;;;8.85;1.45;;;0.10;99.90;;;;;;5094169;28;20067;-79
2024/01/19 05:04:23;;;;;;;11.00;2.00;;;0.10;99.90;;;;;;5094462;28;20401;-79
2024/01/19 05:06:48;;;;;;;11.97;1.63;;;0.00;99.90;;;;;;5094667;28;20071;-79
2024/01/19 05:09:14;;;;;;;15.77;2.67;;;0.00;99.90;;;;;;5094494;28;20481;-79
2024/01/19 05:11:40;;;;;;;12.70;2.63;;;0.00;99.90;;;;;;5094225;28;20109;-79
2024/01/19 05:14:06;;;;;;;14.80;2.80;;;0.00;99.90;;;;;;5094458;28;20048;-79
2024/01/19 05:16:32;;;;;;;13.93;2.28;;;0.00;99.90;;;;;;5094211;28;20374;-79
2024/01/19 05:18:58;;;;;;;17.08;2.47;;;-0.10;99.90;;;;;;5093139;28;20054;-79
2024/01/19 05:21:24;;;;;;;13.30;1.97;;;0.00;99.90;;;;;;5093982;28;20054;-77
2024/01/19 05:23:49;;;;;;;15.23;2.30;;;0.00;99.90;;;;;;5094149;28;20055;-79
2024/01/19 05:26:15;;;;;;;13.20;1.60;;;0.00;99.90;;;;;;5094158;28;20079;-79
2024/01/19 05:28:41;;;;;;;20.60;1.93;;;0.00;99.90;;;;;;5093899;28;20070;-79
2024/01/19 05:31:07;;;;;;;11.50;2.00;;;-0.10;99.90;;;;;;5094089;28;20051;-79
2024/01/19 05:33:34;;;;;;;8.77;1.40;;;-0.10;99.90;;;;;;5093841;28;20376;-79
2024/01/19 05:36:01;;;;;;;12.43;1.55;;;-0.10;99.90;;;;;;5094021;28;20052;-80
2024/01/19 05:38:27;;;;;;;13.77;2.80;;;-0.10;99.90;;;;;;5093396;28;20046;-79
2024/01/19 05:40:53;;;;;;;8.15;1.55;;;-0.10;99.90;;;;;;5093952;28;20051;-80
2024/01/19 05:43:18;;;;;;;13.67;1.80;;;0.00;99.90;;;;;;5093828;28;20040;-79
2024/01/19 05:45:44;;;;;;;11.73;2.37;;;0.10;99.90;;;;;;5093623;28;20127;-80
2024/01/19 05:48:10;;;;;;;13.43;1.73;;;0.10;99.90;;;;;;5093887;28;20044;-79
2024/01/19 05:50:36;;;;;;;13.07;2.70;;;0.10;99.90;;;;;;5093519;28;20193;-79
2024/01/19 05:53:02;;;;;;;13.13;2.40;;;0.20;99.90;;;;;;5093717;28;20568;-80
2024/01/19 05:55:28;;;;;;;14.37;1.80;;;0.20;99.90;;;;;;5093450;28;20048;-79
2024/01/19 05:57:53;;;;;;;14.30;2.27;;;0.20;99.90;;;;;;5093603;28;20151;-79
2024/01/19 06:00:19;;;;;;;13.37;2.47;;;0.20;99.90;;;;;;5093353;28;20127;-79
2024/01/19 06:02:45;;;;;;;12.97;1.87;;;0.20;99.90;;;;;;5093175;28;20059;-79
2024/01/19 06:05:10;;;;;;;13.40;1.70;;;0.30;99.90;;;;;;5092434;28;20048;-79
2024/01/19 06:07:36;;;;;;;10.40;1.90;;;0.20;99.90;;;;;;5093304;28;20044;-79
2024/01/19 06:10:02;;;;;;;12.97;1.80;;;0.30;99.90;;;;;;5093507;28;20048;-79
2024/01/19 06:12:28;;;;;;;12.45;1.85;;;0.30;99.90;;;;;;5093472;28;20082;-80
2024/01/19 06:14:53;;;;;;;11.27;2.23;;;0.30;99.90;;;;;;5093194;28;20079;-79
2024/01/19 06:17:19;;;;;;;12.27;2.17;;;0.30;99.90;;;;;;5093367;28;20047;-80
2024/01/19 06:19:45;;;;;;;15.30;1.70;;;0.40;99.90;;;;;;5092795;28;20048;-79
2024/01/19 06:22:11;;;;;;;16.20;2.97;;;0.40;99.90;;;;;;5093242;28;20085;-80
2024/01/19 06:24:36;;;;;;;9.93;1.53;;;0.30;99.90;;;;;;5093206;28;20036;-79
2024/01/19 06:27:05;;;;;;;10.23;1.90;;;0.30;99.90;;;;;;5093272;28;20047;-79
2024/01/19 06:29:31;;;;;;;8.43;1.45;;;0.30;99.90;;;;;;5093214;28;20101;-75
2024/01/19 06:31:57;;;;;;;12.03;1.80;;;0.30;99.90;;;;;;5092932;28;20041;-80
2024/01/19 06:34:24;;;;;;;11.80;2.13;;;0.30;99.90;;;;;;5093145;28;20500;-80
2024/01/19 06:36:50;;;;;;;15.70;3.78;;;0.30;99.90;;;;;;5093014;28;20052;-80
2024/01/19 06:39:15;;;;;;;15.50;6.80;;;0.20;99.90;;;;;;5092135;28;20052;-80
2024/01/19 06:41:42;;;;;;;16.83;5.77;;;0.10;99.90;;;;;;5093028;28;20047;-79
2024/01/19 06:44:13;;;;;;;13.63;6.97;;;0.20;99.90;;;;;;5093073;28;20055;-80
2024/01/19 06:46:43;;;;;;;11.70;3.40;;;0.20;99.90;;;;;;5092887;28;20496;-79
2024/01/19 06:49:08;;;;;;;15.82;4.65;;;0.20;99.90;;;;;;5094712;28;20405;-80
2024/01/19 06:51:34;;;;;;;21.57;3.40;;;0.20;99.90;;;;;;5097070;28;20051;-79
2024/01/19 06:54:00;;;;;;;15.33;3.10;;;0.20;99.90;;;;;;5097115;28;20040;-79
2024/01/19 06:56:25;;;;;;;9.07;2.20;;;0.20;99.90;;;;;;5097081;28;20055;-80
2024/01/19 06:58:52;;;;;;;14.30;2.00;;;0.20;99.90;;;;;;5097114;28;20102;-79
2024/01/19 07:01:18;;;;;;;13.40;2.55;;;0.20;99.90;;;;;;5096925;28;20055;-80
2024/01/19 07:03:44;;;;;;;15.13;2.25;;;0.20;99.90;;;;;;5096439;28;20056;-79
2024/01/19 07:06:09;;;;;;;16.70;3.53;;;0.20;99.90;;;;;;5097023;28;20051;-80
2024/01/19 07:08:36;;;;;;;11.83;1.90;;;0.20;99.90;;;;;;5096931;28;20389;-80
2024/01/19 07:11:02;;;;;;;14.48;2.38;;;0.20;99.90;;;;;;5095771;28;20056;-80
2024/01/19 07:13:28;;;;;;;13.88;1.90;;;0.20;99.90;;;;;;5096638;28;20040;-80
2024/01/19 07:15:54;;;;;;;14.73;2.70;;;0.30;99.90;;;;;;5096455;28;20122;-80
2024/01/19 07:18:19;;;;;;;15.63;2.33;;;0.30;99.90;;;;;;5096482;28;20147;-80
2024/01/19 07:20:45;;;;;;;13.97;1.80;;;0.30;99.90;;;;;;5095382;28;20048;-79
2024/01/19 07:23:11;;;;;;;14.33;2.20;;;0.30;99.90;;;;;;5095409;28;20097;-79
2024/01/19 07:25:37;;;;;;;12.07;3.00;;;0.40;99.90;;;;;;5096236;28;20048;-79
2024/01/19 07:28:03;;;;;;;11.27;1.90;;;0.40;99.90;;;;;;5096498;28;20040;-79
2024/01/19 07:30:28;;;;;;;15.82;2.33;;;0.40;99.90;;;;;;5096606;28;20047;-79
2024/01/19 07:32:54;;;;;;;19.30;2.37;;;0.40;99.90;;;;;;5096206;28;20032;-79
2024/01/19 07:35:20;;;;;;;11.70;1.83;;;0.50;99.90;;;;;;5095255;28;20481;-79
2024/01/19 07:37:46;;;;;;;18.03;2.40;;;0.50;99.90;;;;;;5096182;28;20101;-79
2024/01/19 07:40:12;;;;;;;14.93;2.33;;;0.50;99.90;;;;;;5095414;28;20108;-79
2024/01/19 07:42:37;;;;;;;13.43;1.93;;;0.50;99.90;;;;;;5096150;28;20090;-79
2024/01/19 07:45:03;;;;;;;14.00;2.10;;;0.50;99.90;;;;;;5095986;28;20282;-79
2024/01/19 07:47:29;;;;;;;15.35;2.60;;;0.50;99.90;;;;;;5096133;28;20507;-79
2024/01/19 07:49:55;;;;;;;12.07;1.97;;;0.50;99.90;;;;;;5094846;28;20044;-79
2024/01/19 07:52:20;;;;;;;14.67;2.70;;;0.50;99.90;;;;;;5096203;28;20127;-79
2024/01/19 07:54:46;;;;;;;23.00;3.10;;;0.50;99.90;;;;;;5094906;28;20138;-79
2024/01/19 07:57:12;;;;;;;15.50;3.07;;;0.50;99.90;;;;;;5095990;28;20056;-79
2024/01/19 07:59:38;;;;;;;15.47;4.13;;;0.50;99.90;;;;;;5095499;28;20044;-79
2024/01/19 08:02:04;;;;;;;26.27;10.77;;;0.50;99.90;;;;;;5095379;28;20051;-79
2024/01/19 08:04:30;;;;;;;22.00;3.75;;;0.50;99.90;;;;;;5096012;28;20094;-80
2024/01/19 08:06:56;;;;;;;13.45;3.72;;;0.50;99.90;;;;;;5095568;28;20048;-79
2024/01/19 08:09:21;;;;;;;12.63;2.97;;;0.50;99.90;;;;;;5077526;28;20040;-79
2024/01/19 08:11:47;;;;;;;10.10;2.70;;;0.50;99.90;;;;;;5094214;28;20137;-78
2024/01/19 08:14:13;;;;;;;17.53;3.60;;;0.50;99.90;;;;;;5094445;28;20169;-79
2024/01/19 08:16:42;;;;;;;13.93;2.63;;;0.50;99.90;;;;;;5094489;28;20048;-79
2024/01/19 08:19:08;;;;;;;14.63;3.08;;;0.50;99.90;;;;;;5095501;28;20056;-79
2024/01/19 08:21:43;;;;;;;22.90;3.57;;;0.50;99.90;;;;;;5095457;28;20447;-79
2024/01/19 08:24:09;;;;;;;19.83;3.42;;;0.50;99.90;;;;;;5095720;28;20428;-79
2024/01/19 08:26:35;;;;;;;17.50;3.13;;;0.50;99.90;;;;;;5095200;28;20052;-79
2024/01/19 08:29:01;;;;;;;11.07;2.58;;;0.50;99.90;;;;;;5095112;28;20127;-79
2024/01/19 08:31:27;;;;;;;14.03;2.53;;;0.50;99.90;;;;;;5095519;28;20126;-79
2024/01/19 08:33:53;;;;;;;14.90;2.58;;;0.50;99.90;;;;;;5094993;28;20051;-79
2024/01/19 08:36:23;;;;;;;16.27;2.60;;;0.50;99.90;;;;;;5095318;28;20127;-79
2024/01/19 08:38:52;;;;;;;23.27;7.13;;;0.40;99.90;;;;;;5095069;28;20051;-79
2024/01/19 08:41:18;;;;;;;20.15;4.13;;;0.50;99.90;;;;;;5093878;28;20122;-79
2024/01/19 08:43:44;;;;;;;15.03;4.20;;;0.50;99.90;;;;;;5093836;28;20128;-79
2024/01/19 08:46:10;;;;;;;13.07;2.40;;;0.60;99.90;;;;;;5094724;28;20044;-79
2024/01/19 08:48:35;;;;;;;20.93;2.60;;;0.60;99.90;;;;;;5077269;28;20048;-79
2024/01/19 08:51:02;;;;;;;15.87;2.23;;;0.60;99.90;;;;;;5093505;28;20044;-79
2024/01/19 08:53:28;;;;;;;13.80;2.20;;;0.60;99.90;;;;;;5095115;28;20105;-79
2024/01/19 08:55:54;;;;;;;13.50;2.70;;;0.60;99.90;;;;;;5094599;28;20474;-79
2024/01/19 08:58:20;;;;;;;12.50;3.00;;;0.60;99.90;;;;;;5094769;28;20044;-79
2024/01/19 09:00:45;;;;;;;16.17;3.03;;;0.70;99.90;;;;;;5094375;28;20135;-79
2024/01/19 09:03:11;;;;;;;15.83;2.80;;;0.70;99.90;;;;;;5094424;28;20059;-79
2024/01/19 09:05:37;;;;;;;18.90;3.00;;;0.70;99.90;;;;;;5094656;28;20502;-79
2024/01/19 09:08:03;;;;;;;13.40;2.00;;;0.70;99.90;;;;;;5094353;28;20043;-79
2024/01/19 09:10:29;;;;;;;12.52;2.15;;;0.70;99.90;;;;;;5094473;28;20416;-80
2024/01/19 09:12:55;;;;;;;14.38;2.35;;;0.80;99.90;;;;;;5093374;28;20048;-79
2024/01/19 09:15:21;;;;;;;10.52;2.33;;;0.80;99.90;;;;;;5094446;28;20047;-79
2024/01/19 09:17:47;;;;;;;14.75;2.47;;;0.80;99.90;;;;;;5094377;28;20085;-79
2024/01/19 09:20:13;;;;;;;16.63;2.73;;;0.80;99.90;;;;;;5094165;28;20048;-79
2024/01/19 09:22:39;;;;;;;16.60;2.42;;;0.80;99.90;;;;;;5094265;28;20093;-79
2024/01/19 09:25:05;;;;;;;14.80;2.27;;;0.90;99.90;;;;;;5093713;28;20075;-79
2024/01/19 09:27:31;;;;;;;20.15;2.50;;;1.00;99.90;;;;;;5094266;28;20070;-79
2024/01/19 09:29:57;;;;;;;21.40;5.77;;;1.00;99.90;;;;;;5093960;28;20048;-79
2024/01/19 09:32:23;;;;;;;14.63;2.93;;;1.10;99.90;;;;;;5094097;28;20397;-79
2024/01/19 09:34:48;;;;;;;18.27;7.57;;;1.10;99.90;;;;;;5093206;28;20044;-79
2024/01/19 09:37:14;;;;;;;20.53;6.17;;;1.10;99.90;;;;;;5092868;28;20071;-79
2024/01/19 09:39:40;;;;;;;14.93;3.10;;;1.10;99.90;;;;;;5093983;28;20044;-79
2024/01/19 09:42:27;;;;;;;19.47;3.60;;;1.10;99.90;;;;;;5093642;28;20055;-79
2024/01/19 09:45:04;;;;;;;15.38;2.15;;;1.20;99.90;;;;;;5092598;28;20046;-77
2024/01/19 09:47:42;;;;;;;22.08;2.53;;;1.30;99.90;;;;;;5076000;28;20060;-79
2024/01/19 09:50:10;;;;;;;17.63;2.58;;;1.40;99.90;;;;;;5093684;28;20048;-79
2024/01/19 09:52:51;;;;;;;15.63;3.15;;;1.60;99.90;;;;;;5093998;28;20120;-79
2024/01/19 09:55:19;;;;;;;15.98;3.05;;;1.70;99.90;;;;;;5093636;28;20051;-79
2024/01/19 09:57:46;;;;;;;17.02;3.55;;;1.80;99.90;;;;;;5093693;28;20096;-79
2024/01/19 10:00:14;;;;;;;16.10;2.15;;;1.90;99.90;;;;;;5093488;28;20048;-79
2024/01/19 10:02:53;;;;;;;13.45;2.47;;;1.90;99.90;;;;;;5093556;28;20091;-80
2024/01/19 10:05:20;;;;;;;10.35;2.03;;;2.00;99.90;;;;;;5093349;28;20035;-79
2024/01/19 10:07:53;;;;;;;17.20;3.55;;;1.90;99.90;;;;;;5093561;28;20052;-79
2024/01/19 10:10:19;;;;;;;13.30;2.00;;;1.90;99.90;;;;;;5092460;28;20052;-79
2024/01/19 10:12:45;;;;;;;14.98;2.17;;;1.90;99.90;;;;;;5093484;28;20090;-79
2024/01/19 10:15:13;;;;;;;13.30;2.33;;;1.90;99.90;;;;;;5093226;28;20079;-79
2024/01/19 10:17:40;;;;;;;17.45;2.63;;;1.90;99.90;;;;;;5093449;28;20071;-79
2024/01/19 10:20:09;;;;;;;14.63;1.80;;;1.90;99.90;;;;;;5093162;28;20058;-79
2024/01/19 10:22:35;;;;;;;18.63;2.67;;;1.90;99.90;;;;;;5091860;28;20048;-79
2024/01/19 10:25:03;;;;;;;14.77;1.90;;;1.90;99.90;;;;;;5093195;28;20611;-79
2024/01/19 10:27:51;;;;;;;13.73;2.28;;;1.90;99.90;;;;;;5093306;28;20040;-79
2024/01/19 10:30:20;;;;;;;15.18;2.05;;;1.90;99.90;;;;;;5093113;28;20097;-79
2024/01/19 10:32:48;;;;;;;14.95;2.70;;;1.90;99.90;;;;;;5093178;28;20402;-80
2024/01/19 10:35:23;;;;;;;13.05;2.25;;;2.00;99.90;;;;;;5093044;28;20055;-79
2024/01/19 10:37:49;;;;;;;13.95;2.58;;;1.90;99.90;;;;;;5093177;28;20096;-80
2024/01/19 10:40:23;;;;;;;19.38;2.40;;;2.00;99.90;;;;;;5092933;28;20097;-80
2024/01/19 10:42:54;;;;;;;13.80;3.83;;;2.00;99.90;;;;;;5093198;28;20079;-80
2024/01/19 10:45:28;;;;;;;26.35;3.22;;;2.00;99.90;;;;;;5092963;28;20044;-79
2024/01/19 10:47:56;;;;;;;13.60;2.55;;;2.00;99.90;;;;;;5075655;28;20077;-79
2024/01/19 10:50:26;;;;;;;17.33;2.25;;;2.00;99.90;;;;;;5092989;28;20170;-80
2024/01/19 10:52:53;;;;;;;14.60;2.20;;;2.10;99.90;;;;;;5093261;28;20068;-80
2024/01/19 10:55:27;;;;;;;13.60;2.47;;;2.10;99.90;;;;;;5092895;28;20207;-79
2024/01/19 10:57:57;;;;;;;15.63;2.63;;;2.10;99.90;;;;;;5093049;28;20048;-80
2024/01/19 11:00:24;;;;;;;17.60;2.35;;;2.10;99.90;;;;;;5092835;28;20040;-80
2024/01/19 11:02:53;;;;;;;14.85;2.13;;;2.20;99.90;;;;;;5093064;28;20079;-80
2024/01/19 11:05:19;;;;;;;13.05;2.65;;;2.20;99.90;;;;;;5092721;28;20543;-80
2024/01/19 11:07:47;;;;;;;13.55;3.05;;;2.20;99.90;;;;;;5092918;28;20533;-80
2024/01/19 11:10:13;;;;;;;15.18;2.00;;;2.30;99.90;;;;;;5092734;28;20043;-80
2024/01/19 11:12:47;;;;;;;11.40;2.43;;;2.30;99.90;;;;;;5092873;28;20123;-80
2024/01/19 11:15:19;;;;;;;11.00;2.17;;;2.30;99.90;;;;;;5092850;28;20101;-80
2024/01/19 11:17:46;;;;;;;8.52;1.63;;;2.30;99.90;;;;;;5093162;28;20064;-81
2024/01/19 11:20:12;;;;;;;14.02;2.53;;;2.40;99.90;;;;;;5092655;28;20044;-80
2024/01/19 11:22:39;;;;;;;13.20;2.40;;;2.40;99.90;;;;;;5092697;28;20427;-81
2024/01/19 11:25:11;;;;;;;11.13;1.80;;;2.50;99.90;;;;;;5092765;28;20416;-80
2024/01/19 11:27:47;;;;;;;16.42;1.88;;;2.60;99.90;;;;;;5093024;28;20087;-81
2024/01/19 11:30:48;;;;;;;16.30;2.67;;;2.50;99.90;;;;;;5092561;28;20095;-81
2024/01/19 11:33:19;;;;;;;8.63;2.03;;;2.50;99.90;;;;;;5091374;28;20040;-81
2024/01/19 11:35:48;;;;;;;12.82;1.60;;;2.50;99.90;;;;;;5094692;28;20044;-81
2024/01/19 11:38:36;;;;;;;8.13;2.17;;;2.50;99.90;;;;;;5094832;28;20043;-81
2024/01/19 11:41:02;;;;;;;15.05;1.60;;;2.60;99.90;;;;;;5096276;28;20052;-81
2024/01/19 11:43:43;;;;;;;12.88;2.08;;;2.60;99.90;;;;;;5095958;28;20043;-81
2024/01/19 11:46:10;;;;;;;10.18;1.80;;;2.60;99.90;;;;;;5096019;28;20044;-81
2024/01/19 11:48:45;;;;;;;12.95;2.35;;;2.60;99.90;;;;;;5096384;28;20059;-81
2024/01/19 11:51:34;;;;;;;11.38;2.40;;;2.70;99.90;;;;;;5095722;28;20044;-81
2024/01/19 11:54:04;;;;;;;13.02;2.22;;;2.70;99.90;;;;;;5094781;28;20052;-82
2024/01/19 11:56:31;;;;;;;15.40;2.80;;;2.80;99.90;;;;;;5095506;28;20123;-82
2024/01/19 11:58:58;;;;;;;12.43;2.50;;;2.80;99.90;;;;;;5095502;28;20566;-82
2024/01/19 12:01:24;;;;;;;13.68;1.95;;;2.80;99.90;;;;;;5095695;28;20409;-81
2024/01/19 12:03:54;;;;;;;16.10;2.37;;;2.80;99.90;;;;;;5095241;28;20135;-81
2024/01/19 12:06:21;;;;;;;13.73;2.13;;;2.90;99.90;;;;;;5094435;28;20286;-81
2024/01/19 12:09:04;;;;;;;13.95;2.25;;;2.90;99.90;;;;;;5095145;28;20561;-82
2024/01/19 12:11:32;;;;;;;8.35;1.50;;;2.90;99.90;;;;;;5095493;28;20474;-81
2024/01/19 12:14:01;;;;;;;14.85;1.85;;;2.90;99.90;;;;;;5095595;28;20047;-81
2024/01/19 12:16:27;;;;;;;10.80;1.90;;;2.90;99.90;;;;;;5095297;28;20056;-81
2024/01/19 12:18:56;;;;;;;18.00;3.37;;;2.80;99.90;;;;;;5095396;28;20474;-81
2024/01/19 12:21:23;;;;;;;12.52;1.83;;;2.90;99.90;;;;;;5095212;28;20047;-81
2024/01/19 12:23:54;;;;;;;10.30;1.67;;;2.90;99.90;;;;;;5095326;28;20478;-81
2024/01/19 12:26:23;;;;;;;11.07;1.80;;;2.90;99.90;;;;;;5095138;28;20052;-81
2024/01/19 12:28:53;;;;;;;9.60;2.10;;;3.00;99.90;;;;;;5095319;28;20055;-81
2024/01/19 12:31:23;;;;;;;11.73;1.48;;;3.00;99.90;;;;;;5094884;28;20489;-81
2024/01/19 12:33:48;;;;;;;10.98;1.58;;;3.00;99.90;;;;;;5095237;28;20157;-81
2024/01/19 12:36:17;;;;;;;12.93;2.03;;;3.00;99.90;;;;;;5093473;28;20078;-80
2024/01/19 12:38:44;;;;;;;13.88;1.88;;;3.00;99.90;;;;;;5095396;28;20101;-81
2024/01/19 12:41:17;;;;;;;9.68;1.98;;;3.00;99.90;;;;;;5095215;28;20051;-81
2024/01/19 12:43:43;;;;;;;8.15;1.35;;;3.00;99.90;;;;;;5093934;28;20036;-81
2024/01/19 12:46:10;;;;;;;8.90;1.85;;;3.00;99.90;;;;;;5093887;28;20501;-81
2024/01/19 12:48:36;;;;;;;11.15;1.60;;;3.10;99.90;;;;;;5094773;28;20413;-81